KHUL

Houlton International Airport

Houlton, Maine, USA
METAR KHUL 170653Z AUTO 00000KT 9SM CLR M06/M06 A2989 RMK AO2 SLP130 T10611061 TSNO
Observed Flight Rules
Dec-17 @ 06:53 UTC (34 minutes ago) Visual Flight Rules
Visibility Clouds
9 miles
  • Clear skies
Temperatures Readings
Current -6°C / 21°F
Dewpoint -6°C / 21°F
Humidity 100%
Altimeter 29.89" Hg
Pressure 1013 hPa
Elevation 150
METAR KHUL 170653Z AUTO 00000KT 9SM CLR M06/M06 A2989 RMK AO2 SLP130 T10611061 TSNO
Observed Flight Rules
Dec-17 @ 06:53 UTC
(34 minutes ago)
VFR
Clouds
  • Clear skies
Temperature Dewpoint
-6°C / 21°F -6°C / 21°F
Humidity Altimeter Pressure
100% 29.89" Hg 1013 hPa